LIRF/FCO METAR and TAF weather

Enter ICAO airport designator
Station Type Date Time Source
LIRF METAR 2024/07/24 12:50 UTC NOAA

LIRF 241250Z 28014KT CAVOK 30/22 Q1010 NOSIG


Station Type Date Time Source
LIRF Decoded METAR 2024/07/24 12:50 UTC NOAA

Roma Fiumicino, Italy (LIRF) 41-48N 012-14E 3M
Jul 24, 2024 - 08:50 AM EDT / 2024.07.24 1250 UTC
Wind: from the W (280 degrees) at 16 MPH (14 KT):0
Visibility: greater than 7 mile(s):0
Temperature: 86 F (30 C)
Heat index: 91.8 F (33.2 C):1
Dew Point: 71 F (22 C)
Relative Humidity: 62%
Pressure (altimeter): 29.83 in. Hg (1010 hPa)
ob: LIRF 241250Z 28014KT CAVOK 30/22 Q1010 NOSIG
cycle: 13

Station Type Date Time Source
LIRF TAF 2024/07/24 12:23 UTC NOAA